ES-0176 weather

Aeródromo de Guadalix de la SIerra
El Vellón, Madrid, Spain

Public forecast

Using degrees Celsius for public forecast. Weather courtesy of forecast.io.

METAR (pilot weather report)

Closest report is Adolfo Suárez Madrid–Barajas Airport, 19.1 nm (35.4 km) S. Retrieved 2019/09/16 13:30 UTC (10 minutes ago):

LEMD 161330Z 14004KT 9999 FEW035 25/15 Q1020 R88/19//95 NOSIG

TAF (pilot weather forecast)

Closest forecast is Adolfo Suárez Madrid–Barajas Airport, 19.1 nm (35.4 km) S. Retrieved 2019/09/16 12:27 UTC (1 hour ago):

TAF LEMD 161100Z 1612/1718 VRB05KT 9999 FEW028 TX25/1615Z TN14/1706Z